Time;durP1;ratioP1;P1;durP2;ratioP2;P2;SDS_P1;SDS_P2;PMS_P1;PMS_P2;Temp;Humidity;BMP_temperature;BMP_pressure;BME280_temperature;BME280_humidity;BME280_pressure;Samples;Min_cycle;Max_cycle;Signal;HPM_P1;HPM_P2
2021/03/02 00:01:08;;;;;;;;;;;;;;;21.55;24.37;99377.19;5061365;28;842;-73
2021/03/02 00:03:33;;;;;;;;;;;;;;;21.99;23.94;99377.72;5061713;28;669;-72
2021/03/02 00:06:02;;;;;;;;;;;;;;;22.51;23.16;99372.13;5061250;28;638;-72
2021/03/02 00:08:28;;;;;;;;;;;;;;;22.65;22.91;99376.84;5061140;28;661;-71
2021/03/02 00:11:00;;;;;;;;;;;;;;;22.15;23.60;99378.06;5060927;28;1102;-71
2021/03/02 00:13:25;;;;;;;;;;;;;;;21.90;23.71;99383.06;5060471;28;1902;-71
2021/03/02 00:15:51;;;;;;;;;;;;;;;21.70;24.27;99372.22;5061045;28;916;-72
2021/03/02 00:18:19;;;;;;;;;;;;;;;21.83;24.29;99376.22;5061022;28;657;-72
2021/03/02 00:20:48;;;;;;;;;;;;;;;22.50;23.13;99379.81;5061058;28;677;-73
2021/03/02 00:23:15;;;;;;;;;;;;;;;22.60;23.18;99373.25;5043663;28;659;-70
2021/03/02 00:25:41;;;;;;;;;;;;;;;22.16;23.49;99371.16;5043626;28;857;-71
2021/03/02 00:28:07;;;;;;;;;;;;;;;21.92;23.72;99380.63;5043592;28;947;-72
2021/03/02 00:30:33;;;;;;;;;;;;;;;21.61;24.27;99373.91;5061133;28;989;-72
2021/03/02 00:32:59;;;;;;;;;;;;;;;21.71;24.11;99373.03;5060817;28;625;-71
2021/03/02 00:35:25;;;;;;;;;;;;;;;21.64;24.28;99373.88;5060838;28;1957;-72
2021/03/02 00:37:50;;;;;;;;;;;;;;;21.65;24.31;99369.81;5060790;28;816;-72
2021/03/02 00:40:16;;;;;;;;;;;;;;;21.57;24.25;99371.09;5060280;28;876;-72
2021/03/02 00:42:44;;;;;;;;;;;;;;;21.56;24.28;99366.66;5060239;28;897;-72
2021/03/02 00:45:10;;;;;;;;;;;;;;;21.51;24.70;99362.22;5060890;28;851;-72
2021/03/02 00:47:35;;;;;;;;;;;;;;;21.54;24.52;99363.41;5060800;28;625;-71
2021/03/02 00:50:02;;;;;;;;;;;;;;;21.52;24.45;99357.34;5060724;28;595;-71
2021/03/02 00:52:28;;;;;;;;;;;;;;;21.92;23.79;99350.25;5076729;28;1245;-72
2021/03/02 00:54:53;;;;;;;;;;;;;;;22.42;23.22;99341.38;5060191;28;1910;-71
2021/03/02 00:57:19;;;;;;;;;;;;;;;22.62;22.84;99352.97;5042939;28;1194;-71
2021/03/02 00:59:44;;;;;;;;;;;;;;;22.33;23.21;99353.22;5076507;28;1205;-70
2021/03/02 01:02:10;;;;;;;;;;;;;;;19.73;24.12;99027.09;5043193;28;1178;-72
2021/03/02 01:04:36;;;;;;;;;;;;;;;21.30;24.76;99339.66;5043512;28;1186;-72
2021/03/02 01:07:03;;;;;;;;;;;;;;;21.82;24.29;99340.59;5076178;28;1036;-72
2021/03/02 01:09:30;;;;;;;;;;;;;;;22.42;23.11;99343.41;5076176;28;1201;-72
2021/03/02 01:11:57;;;;;;;;;;;;;;;22.61;22.90;99345.69;5075871;28;1030;-71
2021/03/02 01:14:24;;;;;;;;;;;;;;;22.39;22.85;99347.91;5076158;28;1901;-72
2021/03/02 01:16:49;;;;;;;;;;;;;;;21.59;23.90;99349.63;5060195;28;653;-72
2021/03/02 01:19:15;;;;;;;;;;;;;;;21.44;24.48;99347.28;5060202;28;645;-72
2021/03/02 01:21:41;;;;;;;;;;;;;;;21.61;24.28;99352.06;5059983;28;792;-72
2021/03/02 01:24:06;;;;;;;;;;;;;;;22.15;23.45;99354.56;5060055;28;932;-72
2021/03/02 01:26:32;;;;;;;;;;;;;;;22.55;23.08;99353.84;5060277;28;869;-72
2021/03/02 01:28:57;;;;;;;;;;;;;;;22.44;22.94;99358.00;5060205;28;864;-72
2021/03/02 01:31:24;;;;;;;;;;;;;;;21.96;23.76;99358.72;5060054;28;630;-73
2021/03/02 01:33:50;;;;;;;;;;;;;;;21.75;23.78;99351.97;5060133;28;1901;-71
2021/03/02 01:36:15;;;;;;;;;;;;;;;21.58;24.40;99356.50;5060084;28;670;-72
2021/03/02 01:38:41;;;;;;;;;;;;;;;21.96;23.92;99355.88;5059877;28;896;-72
2021/03/02 01:41:06;;;;;;;;;;;;;;;22.57;22.88;99362.72;5059949;28;881;-72
2021/03/02 01:43:31;;;;;;;;;;;;;;;22.66;22.69;99365.09;5059944;28;860;-72
2021/03/02 01:45:57;;;;;;;;;;;;;;;21.93;23.66;99356.72;5059842;28;674;-73
2021/03/02 01:48:22;;;;;;;;;;;;;;;21.91;23.83;99361.97;5059847;28;603;-72
2021/03/02 01:50:48;;;;;;;;;;;;;;;21.65;24.02;99361.31;5060019;28;642;-72
2021/03/02 01:53:13;;;;;;;;;;;;;;;21.70;23.90;99366.56;5059712;28;946;-72
2021/03/02 01:55:39;;;;;;;;;;;;;;;22.28;23.27;99359.34;5059772;28;1964;-72
2021/03/02 01:58:04;;;;;;;;;;;;;;;22.60;22.91;99364.72;5061322;28;998;-72
2021/03/02 02:00:30;;;;;;;;;;;;;;;22.58;22.94;99363.53;5063829;28;1223;-72
2021/03/02 02:03:11;;;;;;;;;;;;;;;22.09;23.34;99354.19;5063790;28;599;-72
2021/03/02 02:05:37;;;;;;;;;;;;;;;21.73;24.03;99356.44;5063681;28;714;-72
2021/03/02 02:08:03;;;;;;;;;;;;;;;21.51;24.46;99348.06;5045970;28;1000;-72
2021/03/02 02:10:38;;;;;;;;;;;;;;;21.56;24.24;99356.13;5063415;28;932;-71
2021/03/02 02:13:13;;;;;;;;;;;;;;;21.53;24.18;99358.97;5062641;28;1111;-72
2021/03/02 02:15:38;;;;;;;;;;;;;;;21.81;24.01;99361.66;5063282;28;1906;-71
2021/03/02 02:18:05;;;;;;;;;;;;;;;22.47;22.81;99369.28;5062731;28;684;-72
2021/03/02 02:20:51;;;;;;;;;;;;;;;22.41;23.12;99364.50;5062554;28;670;-72
2021/03/02 02:23:35;;;;;;;;;;;;;;;21.65;23.92;99364.16;5062516;28;981;-72
2021/03/02 02:26:19;;;;;;;;;;;;;;;21.41;24.59;99367.94;5062781;28;907;-72
2021/03/02 02:28:44;;;;;;;;;;;;;;;22.22;23.09;99380.81;5063115;28;737;-72
2021/03/02 02:31:10;;;;;;;;;;;;;;;22.36;23.29;99377.91;5062374;28;650;-71
2021/03/02 02:33:40;;;;;;;;;;;;;;;22.03;23.68;99373.66;5062350;28;1902;-72
2021/03/02 02:36:06;;;;;;;;;;;;;;;21.80;23.60;99379.84;5063029;28;885;-72
2021/03/02 02:38:31;;;;;;;;;;;;;;;21.61;24.05;99380.38;5062907;28;846;-70
2021/03/02 02:40:57;;;;;;;;;;;;;;;22.09;23.45;99385.38;5045498;28;852;-72
2021/03/02 02:43:22;;;;;;;;;;;;;;;22.15;23.49;99385.75;5063103;28;901;-71
2021/03/02 02:45:48;;;;;;;;;;;;;;;21.84;23.69;99386.31;5045587;28;623;-72
2021/03/02 02:48:13;;;;;;;;;;;;;;;21.72;23.75;99383.97;5063135;28;690;-71
2021/03/02 02:50:39;;;;;;;;;;;;;;;21.75;23.94;99385.94;5045700;28;579;-71
2021/03/02 02:53:04;;;;;;;;;;;;;;;21.88;23.80;99385.50;5045024;28;1008;-73
2021/03/02 02:55:32;;;;;;;;;;;;;;;22.10;23.66;99389.81;5062165;28;1909;-73
2021/03/02 02:57:57;;;;;;;;;;;;;;;21.91;23.69;99393.16;5062628;28;877;-72
2021/03/02 03:00:23;;;;;;;;;;;;;;;21.82;23.58;99385.13;5061665;28;1315;-72
2021/03/02 03:02:50;;;;;;;;;;;;;;;21.65;24.14;99388.84;5061914;28;688;-72
2021/03/02 03:05:16;;;;;;;;;;;;;;;21.64;23.82;99385.22;5061865;28;622;-72
2021/03/02 03:07:51;;;;;;;;;;;;;;;21.38;24.47;99389.38;5062025;28;988;-72
2021/03/02 03:10:17;;;;;;;;;;;;;;;21.32;24.58;99380.50;5060757;28;872;-71
2021/03/02 03:12:43;;;;;;;;;;;;;;;21.91;23.61;99384.66;5062282;28;944;-73
2021/03/02 03:15:09;;;;;;;;;;;;;;;22.46;23.08;99384.72;5045273;28;1910;-72
2021/03/02 03:17:40;;;;;;;;;;;;;;;22.18;23.16;99391.41;5062228;28;698;-72
2021/03/02 03:20:06;;;;;;;;;;;;;;;21.78;23.70;99387.97;5062517;28;607;-72
2021/03/02 03:22:32;;;;;;;;;;;;;;;21.50;24.20;99391.75;5044588;28;961;-72
2021/03/02 03:24:57;;;;;;;;;;;;;;;21.96;23.61;99401.22;5044708;28;931;-71
2021/03/02 03:27:23;;;;;;;;;;;;;;;22.71;22.44;99390.16;5044945;28;861;-72
2021/03/02 03:29:48;;;;;;;;;;;;;;;22.42;22.90;99394.47;5062261;28;718;-72
2021/03/02 03:32:14;;;;;;;;;;;;;;;21.73;23.71;99393.25;5045024;28;638;-72
2021/03/02 03:34:40;;;;;;;;;;;;;;;21.62;24.12;99396.16;5061882;28;1910;-72
2021/03/02 03:37:05;;;;;;;;;;;;;;;21.63;24.19;99392.09;5044302;28;877;-73
2021/03/02 03:39:30;;;;;;;;;;;;;;;21.80;23.69;99394.03;5061534;28;905;-72
2021/03/02 03:41:56;;;;;;;;;;;;;;;21.74;23.82;99392.84;5062044;28;851;-73
2021/03/02 03:44:21;;;;;;;;;;;;;;;21.91;23.49;99399.63;5044734;28;682;-71
2021/03/02 03:46:47;;;;;;;;;;;;;;;21.69;23.89;99398.94;5061795;28;654;-72
2021/03/02 03:49:12;;;;;;;;;;;;;;;21.43;24.41;99397.44;5061900;28;709;-73
2021/03/02 03:51:38;;;;;;;;;;;;;;;21.69;23.90;99387.59;5043914;28;982;-73
2021/03/02 03:54:04;;;;;;;;;;;;;;;21.59;23.95;99397.78;5060827;28;1910;-72
2021/03/02 03:56:30;;;;;;;;;;;;;;;21.81;23.81;99395.66;5060645;28;849;-72
2021/03/02 03:58:55;;;;;;;;;;;;;;;21.55;23.94;99399.00;5061523;28;962;-72
2021/03/02 04:01:20;;;;;;;;;;;;;;;21.52;24.31;99388.50;5061405;28;427;-72
2021/03/02 04:03:46;;;;;;;;;;;;;;;22.12;23.52;99392.25;5043998;28;701;-72
2021/03/02 04:06:12;;;;;;;;;;;;;;;22.45;22.74;99387.97;5060478;28;891;-72
2021/03/02 04:08:37;;;;;;;;;;;;;;;22.58;22.61;99391.91;5060669;28;874;-73
2021/03/02 04:11:03;;;;;;;;;;;;;;;22.07;23.49;99396.28;5043779;28;877;-73
2021/03/02 04:13:28;;;;;;;;;;;;;;;21.64;23.74;99385.22;5060311;28;1909;-72
2021/03/02 04:15:59;;;;;;;;;;;;;;;21.93;23.78;99390.72;5061077;28;689;-72
2021/03/02 04:18:24;;;;;;;;;;;;;;;21.71;23.85;99385.19;5060265;28;756;-72
2021/03/02 04:20:50;;;;;;;;;;;;;;;22.21;23.38;99390.56;5060372;28;863;-72
2021/03/02 04:23:15;;;;;;;;;;;;;;;22.55;22.67;99387.06;5043563;28;890;-72
2021/03/02 04:25:41;;;;;;;;;;;;;;;22.72;22.57;99385.28;5061140;28;987;-72
2021/03/02 04:28:06;;;;;;;;;;;;;;;21.95;23.48;99380.59;5060887;28;661;-72
2021/03/02 04:30:32;;;;;;;;;;;;;;;21.56;23.91;99380.81;5061341;28;586;-72
2021/03/02 04:32:58;;;;;;;;;;;;;;;21.64;23.88;99381.56;5060894;28;649;-72
2021/03/02 04:35:23;;;;;;;;;;;;;;;22.19;23.14;99387.34;5060601;28;1979;-72
2021/03/02 04:37:49;;;;;;;;;;;;;;;22.39;22.69;99379.09;5060752;28;871;-72
2021/03/02 04:40:14;;;;;;;;;;;;;;;22.57;22.53;99376.91;5060672;28;873;-72
2021/03/02 04:42:40;;;;;;;;;;;;;;;22.56;22.52;99394.34;5060574;28;598;-72
2021/03/02 04:45:06;;;;;;;;;;;;;;;22.74;22.24;99388.50;5060826;28;701;-72
2021/03/02 04:47:32;;;;;;;;;;;;;;;22.62;22.27;99382.13;5060457;28;638;-71
2021/03/02 04:49:57;;;;;;;;;;;;;;;22.08;22.67;99386.59;5060514;28;595;-72
2021/03/02 04:52:23;;;;;;;;;;;;;;;21.74;23.04;99375.84;5060486;28;989;-72
2021/03/02 04:54:49;;;;;;;;;;;;;;;21.50;23.33;99394.59;5043165;28;1903;-72
2021/03/02 04:57:14;;;;;;;;;;;;;;;21.85;23.35;99389.94;5060293;28;1075;-73
2021/03/02 04:59:40;;;;;;;;;;;;;;;22.44;22.97;99386.38;5052026;28;1437;-73
2021/03/02 05:02:05;;;;;;;;;;;;;;;22.58;22.84;99389.06;5040447;28;583;-73
2021/03/02 05:04:31;;;;;;;;;;;;;;;22.09;23.66;99385.38;5040192;28;698;-72
2021/03/02 05:06:56;;;;;;;;;;;;;;;21.77;23.85;99388.41;5040388;28;809;-73
2021/03/02 05:09:21;;;;;;;;;;;;;;;21.85;23.95;99390.75;5040414;28;960;-73
2021/03/02 05:11:47;;;;;;;;;;;;;;;22.13;23.83;99394.69;5040537;28;810;-72
2021/03/02 05:14:12;;;;;;;;;;;;;;;22.53;23.02;99389.50;5040717;28;1906;-73
2021/03/02 05:16:38;;;;;;;;;;;;;;;22.70;22.77;99394.25;5038591;28;643;-73
2021/03/02 05:19:03;;;;;;;;;;;;;;;22.33;22.93;99398.59;5039871;28;603;-73
2021/03/02 05:21:29;;;;;;;;;;;;;;;21.75;23.94;99408.63;5040286;28;650;-75
2021/03/02 05:23:54;;;;;;;;;;;;;;;21.49;24.17;99409.13;5040410;28;615;-73
2021/03/02 05:26:22;;;;;;;;;;;;;;;22.17;23.51;99415.28;5040068;28;713;-72
2021/03/02 05:28:48;;;;;;;;;;;;;;;22.50;23.20;99413.06;5039913;28;766;-72
2021/03/02 05:31:14;;;;;;;;;;;;;;;22.39;22.79;99410.31;5040110;28;622;-73
2021/03/02 05:33:40;;;;;;;;;;;;;;;21.61;24.23;99408.72;5038880;28;1898;-73
2021/03/02 05:36:05;;;;;;;;;;;;;;;21.30;24.53;99411.25;5039769;28;838;-73
2021/03/02 05:38:31;;;;;;;;;;;;;;;21.08;24.93;99415.28;5039842;28;984;-73
2021/03/02 05:41:03;;;;;;;;;;;;;;;22.40;22.91;99420.41;5039660;28;646;-72
2021/03/02 05:43:29;;;;;;;;;;;;;;;22.65;22.69;99419.41;5039154;28;1429;-73
2021/03/02 05:45:54;;;;;;;;;;;;;;;22.42;22.94;99417.16;5039883;28;681;-73
2021/03/02 05:48:20;;;;;;;;;;;;;;;22.15;23.32;99419.78;5055415;28;812;-73
2021/03/02 05:50:45;;;;;;;;;;;;;;;22.00;23.69;99425.50;5039710;28;870;-73
2021/03/02 05:53:11;;;;;;;;;;;;;;;21.84;23.73;99423.16;5055578;28;1119;-73
2021/03/02 05:55:36;;;;;;;;;;;;;;;21.69;24.17;99415.94;5055421;28;1987;-73
2021/03/02 05:58:05;;;;;;;;;;;;;;;21.53;24.22;99412.78;5055747;28;1317;-72
2021/03/02 06:00:33;;;;;;;;;;;;;;;21.44;24.54;99412.41;5073343;28;1126;-71
2021/03/02 06:02:59;;;;;;;;;;;;;;;22.24;23.11;99429.44;5059287;28;1097;-72
2021/03/02 06:05:24;;;;;;;;;;;;;;;22.45;22.98;99419.97;5059199;28;848;-70
2021/03/02 06:07:50;;;;;;;;;;;;;;;22.57;22.74;99430.81;5059773;28;873;-73
2021/03/02 06:10:16;;;;;;;;;;;;;;;22.66;22.75;99427.50;5059565;28;714;-72
2021/03/02 06:12:51;;;;;;;;;;;;;;;22.63;22.66;99425.50;5042501;28;701;-73
2021/03/02 06:15:17;;;;;;;;;;;;;;;22.02;23.47;99427.91;5059475;28;1969;-73
2021/03/02 06:17:42;;;;;;;;;;;;;;;21.62;23.88;99421.66;5059527;28;889;-72
2021/03/02 06:20:17;;;;;;;;;;;;;;;21.45;23.97;99429.00;5059062;28;1520;-73
2021/03/02 06:22:43;;;;;;;;;;;;;;;22.10;23.34;99429.50;5075491;28;964;-73
2021/03/02 06:25:27;;;;;;;;;;;;;;;22.43;22.71;99435.78;5059565;28;636;-72
2021/03/02 06:27:53;;;;;;;;;;;;;;;22.52;22.85;99438.97;5039535;28;706;-73
2021/03/02 06:30:18;;;;;;;;;;;;;;;22.58;22.50;99434.44;5039366;28;634;-73
2021/03/02 06:32:45;;;;;;;;;;;;;;;22.27;22.72;99434.25;5039422;28;718;-71
2021/03/02 06:35:11;;;;;;;;;;;;;;;21.70;23.77;99431.72;5055260;28;1902;-73
2021/03/02 06:37:43;;;;;;;;;;;;;;;21.54;23.71;99431.38;5039523;28;639;-73
2021/03/02 06:40:09;;;;;;;;;;;;;;;21.54;24.15;99425.72;5039198;28;960;-73
2021/03/02 06:42:38;;;;;;;;;;;;;;;22.12;23.26;99435.56;5038641;28;856;-73
2021/03/02 06:45:04;;;;;;;;;;;;;;;22.35;22.91;99430.16;5042211;28;806;-73
2021/03/02 06:47:31;;;;;;;;;;;;;;;22.57;22.71;99430.81;5025605;28;658;-72
2021/03/02 06:49:57;;;;;;;;;;;;;;;22.62;22.47;99438.06;5042938;28;650;-71
2021/03/02 06:52:22;;;;;;;;;;;;;;;22.55;22.50;99438.13;5042808;28;726;-71
2021/03/02 06:54:48;;;;;;;;;;;;;;;21.91;23.37;99435.66;5042941;28;1906;-73
2021/03/02 06:57:21;;;;;;;;;;;;;;;21.55;23.68;99435.81;5060338;28;1053;-73
2021/03/02 06:59:52;;;;;;;;;;;;;;;21.42;24.62;99435.47;5059746;28;1151;-70
2021/03/02 07:02:37;;;;;;;;;;;;;;;22.43;23.32;99441.44;5062450;28;914;-72
2021/03/02 07:05:05;;;;;;;;;;;;;;;22.73;22.93;99435.94;5062687;28;725;-71
2021/03/02 07:07:30;;;;;;;;;;;;;;;22.73;22.77;99438.78;5062508;28;626;-71
2021/03/02 07:09:56;;;;;;;;;;;;;;;22.59;22.73;99438.91;5062418;28;664;-72
2021/03/02 07:12:21;;;;;;;;;;;;;;;22.16;23.53;99433.53;5062199;28;925;-71
2021/03/02 07:14:47;;;;;;;;;;;;;;;21.88;23.83;99428.00;5061886;28;1902;-73
2021/03/02 07:17:13;;;;;;;;;;;;;;;21.59;24.47;99428.13;5045177;28;917;-73
2021/03/02 07:19:39;;;;;;;;;;;;;;;21.64;24.34;99421.22;5062270;28;666;-73
2021/03/02 07:22:04;;;;;;;;;;;;;;;21.56;24.28;99431.78;5062264;28;718;-73
2021/03/02 07:24:31;;;;;;;;;;;;;;;21.50;24.51;99430.56;5062209;28;587;-72
2021/03/02 07:26:57;;;;;;;;;;;;;;;21.79;23.96;99436.94;5061937;28;833;-73
2021/03/02 07:29:23;;;;;;;;;;;;;;;22.29;23.54;99431.84;5044692;28;959;-73
2021/03/02 07:31:48;;;;;;;;;;;;;;;22.53;23.00;99434.88;5061369;28;867;-73
2021/03/02 07:34:14;;;;;;;;;;;;;;;22.54;23.19;99428.03;5061978;28;1898;-73
2021/03/02 07:36:40;;;;;;;;;;;;;;;22.13;23.50;99425.06;5044777;28;674;-73
2021/03/02 07:39:12;;;;;;;;;;;;;;;21.72;24.04;99422.81;5062188;28;666;-73
2021/03/02 07:41:37;;;;;;;;;;;;;;;21.56;24.24;99426.13;5052367;28;1548;-73
2021/03/02 07:44:03;;;;;;;;;;;;;;;22.11;23.63;99414.13;5052429;28;1283;-73
2021/03/02 07:46:28;;;;;;;;;;;;;;;22.47;23.10;99420.34;5061335;28;1409;-75
2021/03/02 07:48:54;;;;;;;;;;;;;;;22.51;23.05;99423.16;5061082;28;614;-73
2021/03/02 07:51:23;;;;;;;;;;;;;;;22.23;23.28;99416.50;5061905;28;678;-75
2021/03/02 07:53:49;;;;;;;;;;;;;;;21.91;23.64;99415.81;5062237;28;1906;-74
2021/03/02 07:56:23;;;;;;;;;;;;;;;21.76;23.82;99410.25;5074361;28;1420;-76
2021/03/02 07:59:18;;;;;;;;;;;;;;;21.67;24.00;99418.38;5060885;28;1203;-76
2021/03/02 08:01:44;;;;;;;;;;;;;;;22.27;23.52;99420.09;5041419;28;1207;-75
2021/03/02 08:04:16;;;;;;;;;;;;;;;22.60;22.82;99412.16;5057542;28;600;-73
2021/03/02 08:06:50;;;;;;;;;;;;;;;22.48;22.74;99415.47;5049626;28;618;-73
2021/03/02 08:09:25;;;;;;;;;;;;;;;21.87;23.71;99415.88;5061145;28;721;-73
2021/03/02 08:11:50;;;;;;;;;;;;;;;21.64;23.65;99409.91;5061183;28;674;-73
2021/03/02 08:14:16;;;;;;;;;;;;;;;21.65;23.88;99400.97;5061204;28;1902;-76
2021/03/02 08:16:51;;;;;;;;;;;;;;;22.47;22.76;99408.19;5063372;28;835;-75
2021/03/02 08:19:36;;;;;;;;;;;;;;;22.59;22.56;99410.56;5061733;28;1425;-78
2021/03/02 08:22:16;;;;;;;;;;;;;;;21.80;23.67;99408.19;5062254;28;718;-75
2021/03/02 08:24:54;;;;;;;;;;;;;;;21.67;23.60;99407.06;5061041;28;685;-74
2021/03/02 08:27:35;;;;;;;;;;;;;;;21.70;23.95;99411.88;5060375;28;845;-76
2021/03/02 08:30:00;;;;;;;;;;;;;;;22.26;23.35;99414.84;5060985;28;938;-76
2021/03/02 08:32:31;;;;;;;;;;;;;;;22.48;22.60;99404.13;5077431;28;673;-72
2021/03/02 08:35:01;;;;;;;;;;;;;;;22.63;22.66;99416.97;5062065;28;1926;-76
2021/03/02 08:37:45;;;;;;;;;;;;;;;22.32;23.31;99419.66;5062572;28;678;-76
2021/03/02 08:40:11;;;;;;;;;;;;;;;21.54;24.19;99408.72;5078125;28;721;-74
2021/03/02 08:42:37;;;;;;;;;;;;;;;22.06;23.69;99406.81;5060790;28;967;-73
2021/03/02 08:45:06;;;;;;;;;;;;;;;21.85;23.93;99407.75;5060335;28;932;-74
2021/03/02 08:47:32;;;;;;;;;;;;;;;21.75;23.84;99419.94;5075968;28;965;-73
2021/03/02 08:49:58;;;;;;;;;;;;;;;21.62;23.94;99410.31;5060631;28;648;-74
2021/03/02 08:52:34;;;;;;;;;;;;;;;21.69;23.89;99412.31;5059922;28;655;-72
2021/03/02 08:54:59;;;;;;;;;;;;;;;21.58;24.20;99409.50;5060164;28;1914;-74
2021/03/02 08:57:25;;;;;;;;;;;;;;;21.48;24.29;99408.34;5059537;28;799;-73
2021/03/02 08:59:50;;;;;;;;;;;;;;;21.58;23.83;99410.31;5060294;28;1080;-72
2021/03/02 09:02:16;;;;;;;;;;;;;;;21.71;24.10;99413.53;5060303;28;847;-75
2021/03/02 09:04:41;;;;;;;;;;;;;;;21.64;23.93;99412.72;5076038;28;702;-74
2021/03/02 09:07:06;;;;;;;;;;;;;;;21.49;24.17;99407.13;5058983;28;614;-73
2021/03/02 09:09:32;;;;;;;;;;;;;;;22.18;23.23;99414.09;5059776;28;605;-72
2021/03/02 09:11:58;;;;;;;;;;;;;;;22.47;22.73;99413.88;5060516;28;629;-73
2021/03/02 09:14:28;;;;;;;;;;;;;;;22.59;22.79;99421.91;5060047;28;1901;-73
2021/03/02 09:16:55;;;;;;;;;;;;;;;21.85;23.49;99412.63;5059788;28;685;-73
2021/03/02 09:19:22;;;;;;;;;;;;;;;21.78;23.66;99410.63;5059744;28;1009;-74
2021/03/02 09:22:00;;;;;;;;;;;;;;;21.58;23.90;99413.16;5059732;28;964;-74
2021/03/02 09:24:27;;;;;;;;;;;;;;;21.97;23.45;99406.50;5060086;28;826;-74
2021/03/02 09:26:54;;;;;;;;;;;;;;;22.39;23.02;99418.00;5060399;28;610;-74
2021/03/02 09:29:19;;;;;;;;;;;;;;;22.53;22.66;99403.69;5059737;28;654;-73
2021/03/02 09:31:45;;;;;;;;;;;;;;;21.74;23.79;99421.19;5075804;28;992;-74
2021/03/02 09:34:10;;;;;;;;;;;;;;;21.48;24.00;99416.03;5075830;28;1910;-73
2021/03/02 09:36:36;;;;;;;;;;;;;;;21.51;24.22;99410.38;5075688;28;874;-72
2021/03/02 09:39:18;;;;;;;;;;;;;;;22.03;23.37;99418.19;5075491;28;845;-74
2021/03/02 09:41:45;;;;;;;;;;;;;;;22.42;22.61;99417.16;5075756;28;689;-74
2021/03/02 09:44:20;;;;;;;;;;;;;;;22.57;22.27;99408.09;5059564;28;868;-75
2021/03/02 09:46:46;;;;;;;;;;;;;;;21.65;23.77;99415.13;5059627;28;943;-73
2021/03/02 09:49:11;;;;;;;;;;;;;;;21.52;23.98;99411.97;5059970;28;1314;-74
2021/03/02 09:51:36;;;;;;;;;;;;;;;21.57;23.95;99410.75;5059615;28;654;-72
2021/03/02 09:54:28;;;;;;;;;;;;;;;22.04;23.28;99408.47;5059705;28;1897;-73
2021/03/02 09:57:01;;;;;;;;;;;;;;;22.42;22.62;99405.81;5058854;28;1434;-73
2021/03/02 09:59:27;;;;;;;;;;;;;;;22.22;22.72;99414.03;5074950;28;1168;-74
2021/03/02 10:01:52;;;;;;;;;;;;;;;21.95;23.21;99399.63;5060283;28;813;-79
2021/03/02 10:04:18;;;;;;;;;;;;;;;21.62;24.27;99404.66;5058316;28;864;-74
2021/03/02 10:06:43;;;;;;;;;;;;;;;22.30;23.26;99407.91;5059246;28;614;-76
2021/03/02 10:09:18;;;;;;;;;;;;;;;21.90;24.24;99402.88;5074232;28;831;-75
2021/03/02 10:11:43;;;;;;;;;;;;;;;21.89;24.37;99402.06;5059153;28;595;-73
2021/03/02 10:14:09;;;;;;;;;;;;;;;21.83;24.30;99398.88;5058280;28;1910;-78
2021/03/02 10:16:37;;;;;;;;;;;;;;;21.83;24.29;99393.22;5058908;28;923;-77
2021/03/02 10:19:20;;;;;;;;;;;;;;;21.74;24.38;99389.22;5061017;28;846;-76
2021/03/02 10:21:58;;;;;;;;;;;;;;;21.87;24.15;99387.53;5063218;28;650;-78
2021/03/02 10:24:28;;;;;;;;;;;;;;;21.80;24.10;99381.88;5063182;28;690;-78
2021/03/02 10:27:06;;;;;;;;;;;;;;;21.87;23.93;99375.41;5062727;28;797;-77
2021/03/02 10:29:32;;;;;;;;;;;;;;;21.84;23.99;99380.66;5078712;28;1478;-77
2021/03/02 10:31:57;;;;;;;;;;;;;;;21.92;24.02;99380.63;5063030;28;984;-77
2021/03/02 10:34:23;;;;;;;;;;;;;;;21.95;23.91;99371.28;5079145;28;1898;-77
2021/03/02 10:36:52;;;;;;;;;;;;;;;21.86;24.09;99374.56;5062738;28;640;-77
2021/03/02 10:39:18;;;;;;;;;;;;;;;21.96;23.68;99372.88;5062913;28;688;-77
2021/03/02 10:41:44;;;;;;;;;;;;;;;21.99;23.64;99366.41;5062992;28;972;-77
2021/03/02 10:44:09;;;;;;;;;;;;;;;22.02;23.60;99369.22;5062572;28;812;-78
2021/03/02 10:46:35;;;;;;;;;;;;;;;21.89;23.98;99364.44;5077970;28;1401;-77
2021/03/02 10:49:00;;;;;;;;;;;;;;;22.00;23.86;99356.66;5062023;28;1188;-76
2021/03/02 10:51:26;;;;;;;;;;;;;;;22.21;23.38;99367.88;5062769;28;718;-77
2021/03/02 10:53:51;;;;;;;;;;;;;;;22.03;23.77;99355.84;5062610;28;1918;-77
2021/03/02 10:56:17;;;;;;;;;;;;;;;22.17;23.72;99354.94;5062764;28;966;-82
2021/03/02 10:58:43;;;;;;;;;;;;;;;22.02;24.19;99355.03;5062000;28;974;-72
2021/03/02 11:01:08;;;;;;;;;;;;;;;22.06;24.30;99360.66;5062277;28;797;-76
2021/03/02 11:03:34;;;;;;;;;;;;;;;22.35;24.09;99350.75;5062974;28;677;-80
2021/03/02 11:06:00;;;;;;;;;;;;;;;21.99;24.28;99349.41;5062473;28;717;-81
2021/03/02 11:08:25;;;;;;;;;;;;;;;21.93;24.54;99339.72;5078091;28;884;-79
2021/03/02 11:10:51;;;;;;;;;;;;;;;22.15;24.59;99341.22;5062171;28;1030;-77
2021/03/02 11:13:16;;;;;;;;;;;;;;;22.34;24.05;99337.81;5061767;28;770;-80
2021/03/02 11:15:42;;;;;;;;;;;;;;;22.49;24.12;99337.69;5077558;28;1977;-78
2021/03/02 11:18:07;;;;;;;;;;;;;;;23.10;23.01;99326.53;5078089;28;713;-73
2021/03/02 11:20:33;;;;;;;;;;;;;;;23.24;22.90;99332.03;5062867;28;659;-74
2021/03/02 11:22:59;;;;;;;;;;;;;;;23.38;22.62;99326.19;5062472;28;595;-73
2021/03/02 11:25:24;;;;;;;;;;;;;;;23.37;22.90;99333.09;5061857;28;947;-75
2021/03/02 11:27:50;;;;;;;;;;;;;;;23.23;22.99;99330.44;5062043;28;867;-71
2021/03/02 11:30:16;;;;;;;;;;;;;;;23.13;22.92;99322.84;5060713;28;790;-74
2021/03/02 11:32:42;;;;;;;;;;;;;;;23.40;23.08;99322.91;5062036;28;1146;-73
2021/03/02 11:35:08;;;;;;;;;;;;;;;23.49;22.77;99319.56;5061622;28;1980;-73
2021/03/02 11:37:35;;;;;;;;;;;;;;;23.31;23.08;99314.94;5061803;28;674;-74
2021/03/02 11:40:00;;;;;;;;;;;;;;;22.85;23.41;99310.56;5061684;28;845;-75
2021/03/02 11:42:25;;;;;;;;;;;;;;;22.60;23.76;99310.84;5061277;28;850;-73
2021/03/02 11:44:51;;;;;;;;;;;;;;;22.65;23.88;99303.91;5061790;28;947;-72
2021/03/02 11:47:17;;;;;;;;;;;;;;;22.25;24.54;99306.28;5061980;28;670;-75
2021/03/02 11:49:42;;;;;;;;;;;;;;;22.36;24.20;99306.19;5061885;28;698;-76
2021/03/02 11:52:08;;;;;;;;;;;;;;;22.54;23.78;99303.22;5061576;28;982;-77
2021/03/02 11:54:33;;;;;;;;;;;;;;;22.56;23.67;99286.56;5061419;28;1898;-76
2021/03/02 11:57:05;;;;;;;;;;;;;;;22.18;24.25;99295.03;5060566;28;992;-75
2021/03/02 11:59:31;;;;;;;;;;;;;;;22.19;24.09;99296.63;5060870;28;1653;-75
2021/03/02 12:01:56;;;;;;;;;;;;;;;22.19;24.36;99296.63;5060148;28;1217;-75
2021/03/02 12:04:22;;;;;;;;;;;;;;;22.06;24.18;99289.81;5069092;28;1118;-75
2021/03/02 12:06:47;;;;;;;;;;;;;;;21.85;24.35;99294.41;5075652;28;1119;-76
2021/03/02 12:09:13;;;;;;;;;;;;;;;21.78;24.51;99299.34;5061094;28;862;-76
2021/03/02 12:11:38;;;;;;;;;;;;;;;21.74;24.54;99290.84;5061345;28;967;-76
2021/03/02 12:14:04;;;;;;;;;;;;;;;21.80;24.35;99286.34;5060970;28;1909;-77
2021/03/02 12:16:29;;;;;;;;;;;;;;;21.71;24.54;99283.22;5061333;28;686;-76
2021/03/02 12:18:55;;;;;;;;;;;;;;;21.98;24.30;99282.59;5061325;28;738;-76
2021/03/02 12:21:20;;;;;;;;;;;;;;;21.78;24.43;99280.31;5060902;28;976;-76
2021/03/02 12:23:46;;;;;;;;;;;;;;;21.82;24.33;99272.59;5060258;28;1114;-77
2021/03/02 12:26:12;;;;;;;;;;;;;;;21.73;24.55;99272.25;5060691;28;846;-77
2021/03/02 12:28:37;;;;;;;;;;;;;;;21.77;24.53;99270.22;5059476;28;1162;-77
2021/03/02 12:31:03;;;;;;;;;;;;;;;21.78;24.28;99268.97;5062544;28;996;-76
2021/03/02 12:33:28;;;;;;;;;;;;;;;21.95;24.25;99263.59;5060883;28;705;-73
2021/03/02 12:35:54;;;;;;;;;;;;;;;22.49;23.66;99258.28;5060482;28;1898;-73
2021/03/02 12:38:20;;;;;;;;;;;;;;;22.67;23.55;99260.91;5060442;28;829;-73
2021/03/02 12:40:46;;;;;;;;;;;;;;;22.63;23.94;99258.09;5060567;28;916;-73
2021/03/02 12:43:11;;;;;;;;;;;;;;;21.93;24.64;99257.53;5060442;28;634;-74
2021/03/02 12:45:37;;;;;;;;;;;;;;;22.52;23.78;99251.75;5061316;28;639;-71
2021/03/02 12:48:04;;;;;;;;;;;;;;;22.50;23.76;99251.38;5059986;28;606;-71
2021/03/02 12:50:29;;;;;;;;;;;;;;;22.48;23.83;99246.09;5060034;28;852;-73
2021/03/02 12:52:54;;;;;;;;;;;;;;;22.60;23.77;99241.94;5059978;28;957;-74
2021/03/02 12:55:20;;;;;;;;;;;;;;;22.56;23.94;99244.00;5060595;28;1898;-68
2021/03/02 12:57:45;;;;;;;;;;;;;;;22.47;23.99;99249.38;5060006;28;725;-71
2021/03/02 13:00:11;;;;;;;;;;;;;;;22.39;24.23;99237.31;5060470;28;1002;-73
2021/03/02 13:02:37;;;;;;;;;;;;;;;22.37;24.35;99245.41;5061022;28;681;-76
2021/03/02 13:05:03;;;;;;;;;;;;;;;22.40;24.01;99238.09;5059586;28;1485;-75